CheckWX is a tool to help pilots better visualize weather data.  It is not intended as a substitute for an official pre-flight weather briefing.

01:08:50 UTC

KORC METAR
Orange City Municipal Airport
Orange City, Iowa, USA
Current

14 mins ago

KORC 240055Z AUTO 36014G22KT 1 3/4SM -SN OVC006 M03/M03 A2966 RMK AO2
Observed
Feb-24 @ 00:55 UTC
Wind
  • 360° at 14 KTS
  • Gusting to 22 KTS
Visibility
1 3/4 SM
Flight Rules
IFR
Conditions
Light Snow
Cloud Levels
  • Overcast at 600' AGL
Temperature
-3°C / 27°F
Dewpoint
-3°C / 27°F
Humidity
100%
Altimeter
29.66" Hg
Pressure
1004.42 hPa
Previous

34 mins ago

KORC 240035Z AUTO 35018G23KT 1 1/2SM -SN OVC006 M03/M03 A2965 RMK AO2
Observed
Feb-24 @ 00:35 UTC
Wind
  • 350° at 18 KTS
  • Gusting to 23 KTS
Visibility
1 1/2 SM
Flight Rules
IFR
Conditions
Light Snow
Cloud Levels
  • Overcast at 600' AGL
Temperature
-3°C / 27°F
Dewpoint
-3°C / 27°F
Humidity
100%
Altimeter
29.65" Hg
Pressure
1004.02 hPa
Previous

54 mins ago

KORC 240015Z AUTO 36015G20KT 2 1/2SM -SN OVC010 M03/M03 A2967 RMK AO2
Observed
Feb-24 @ 00:15 UTC
Wind
  • 360° at 15 KTS
  • Gusting to 20 KTS
Visibility
2 1/2 SM
Flight Rules
IFR
Conditions
Light Snow
Cloud Levels
  • Overcast at 1,000' AGL
Temperature
-3°C / 27°F
Dewpoint
-3°C / 27°F
Humidity
100%
Altimeter
29.67" Hg
Pressure
1004.72 hPa